createdAt,value
2016-06-22T00:00:36.671Z,0
2016-06-22T00:01:36.658Z,0
2016-06-22T00:02:36.668Z,0
2016-06-22T00:03:36.074Z,0
2016-06-22T00:04:36.728Z,0
2016-06-22T00:05:37.358Z,0
2016-06-22T00:06:36.788Z,0
2016-06-22T00:07:35.593Z,0
2016-06-22T00:08:36.245Z,0
2016-06-22T00:09:36.255Z,0
2016-06-22T00:10:36.958Z,0
2016-06-22T00:11:36.911Z,0
2016-06-22T00:12:36.313Z,0
2016-06-22T00:13:36.326Z,0
2016-06-22T00:14:37.016Z,0
2016-06-22T00:15:37.598Z,0
2016-06-22T00:16:37.006Z,0
2016-06-22T00:17:37.043Z,0
2016-06-22T00:18:37.105Z,0
2016-06-22T00:19:36.766Z,0
2016-06-22T00:20:36.509Z,0
2016-06-22T00:21:36.581Z,0
2016-06-22T00:22:37.147Z,0
2016-06-22T00:23:37.198Z,0
2016-06-22T00:24:37.809Z,0
2016-06-22T00:25:37.816Z,0
2016-06-22T00:26:37.252Z,0
2016-06-22T00:27:37.271Z,0
2016-06-22T00:28:37.892Z,0
2016-06-22T00:29:37.929Z,0
2016-06-22T00:30:37.946Z,0
2016-06-22T00:31:36.766Z,0
2016-06-22T00:32:37.988Z,0
2016-06-22T00:33:38.023Z,0
2016-06-22T00:34:36.826Z,0
2016-06-22T00:35:37.486Z,0
2016-06-22T00:36:37.470Z,0
2016-06-22T00:37:37.507Z,0
2016-06-22T00:38:37.549Z,0
2016-06-22T00:39:37.571Z,0
2016-06-22T00:40:36.997Z,0
2016-06-22T00:41:37.013Z,0
2016-06-22T00:42:38.255Z,0
2016-06-22T00:43:37.182Z,0
2016-06-22T00:44:37.047Z,0
2016-06-22T00:45:37.114Z,0
2016-06-22T00:46:37.710Z,0
2016-06-22T00:47:37.173Z,0
2016-06-22T00:48:38.354Z,0
2016-06-22T00:49:36.563Z,0
2016-06-22T00:50:38.437Z,0
2016-06-22T00:51:38.487Z,0
2016-06-22T00:52:37.849Z,0
2016-06-22T00:53:37.875Z,0
2016-06-22T00:54:37.900Z,0
2016-06-22T00:55:37.318Z,0
2016-06-22T00:56:37.944Z,0
2016-06-22T00:57:37.977Z,0
2016-06-22T00:58:37.998Z,0
2016-06-22T00:59:38.026Z,0
2016-06-22T01:00:37.490Z,0
2016-06-22T01:01:38.089Z,0
2016-06-22T01:02:38.811Z,0
2016-06-22T01:03:37.588Z,0
2016-06-22T01:04:37.509Z,0
2016-06-22T01:05:38.210Z,0
2016-06-22T01:06:38.209Z,0
2016-06-22T01:07:38.291Z,0
2016-06-22T01:08:38.915Z,0
2016-06-22T01:09:38.316Z,0
2016-06-22T01:10:38.889Z,0
2016-06-22T01:11:38.441Z,0
2016-06-22T01:12:38.330Z,0
2016-06-22T01:13:38.949Z,0
2016-06-22T01:14:38.968Z,0
2016-06-22T01:15:38.387Z,0
2016-06-22T01:16:37.885Z,0
2016-06-22T01:17:37.827Z,0
2016-06-22T01:18:37.839Z,0
2016-06-22T01:19:37.253Z,0
2016-06-22T01:20:38.509Z,0
2016-06-22T01:21:38.538Z,0
2016-06-22T01:22:37.940Z,0
2016-06-22T01:23:37.950Z,0
2016-06-22T01:24:38.689Z,0
2016-06-22T01:25:38.006Z,0
2016-06-22T01:26:38.037Z,0
2016-06-22T01:27:38.178Z,0
2016-06-22T01:28:38.081Z,0
2016-06-22T01:29:39.311Z,0
2016-06-22T01:30:38.755Z,0
2016-06-22T01:31:37.534Z,0
2016-06-22T01:32:38.803Z,0
2016-06-22T01:33:38.180Z,0
2016-06-22T01:34:38.816Z,0
2016-06-22T01:35:38.867Z,0
2016-06-22T01:36:39.479Z,0
2016-06-22T01:37:37.661Z,0
2016-06-22T01:38:39.545Z,0
2016-06-22T01:39:38.334Z,0
2016-06-22T01:40:38.365Z,0
2016-06-22T01:41:38.374Z,0
2016-06-22T01:42:38.480Z,0
2016-06-22T01:43:38.437Z,0
2016-06-22T01:44:39.781Z,0
2016-06-22T01:45:39.087Z,0
2016-06-22T01:46:38.587Z,0
2016-06-22T01:47:39.749Z,0
2016-06-22T01:48:38.546Z,0
2016-06-22T01:49:39.159Z,0
2016-06-22T01:50:39.219Z,0
2016-06-22T01:51:39.278Z,0
2016-06-22T01:52:38.624Z,0
2016-06-22T01:53:38.671Z,0
2016-06-22T01:54:38.177Z,0
2016-06-22T01:55:38.078Z,0
2016-06-22T01:56:39.977Z,0
2016-06-22T01:57:39.369Z,0
2016-06-22T01:58:38.151Z,0
2016-06-22T01:59:40.117Z,0
2016-06-22T02:00:40.060Z,0
2016-06-22T02:01:40.069Z,0
2016-06-22T02:02:39.472Z,4
2016-06-22T02:03:38.386Z,4
2016-06-22T02:04:40.118Z,0
2016-06-22T02:05:39.067Z,0
2016-06-22T02:06:38.957Z,0
2016-06-22T02:07:39.607Z,4
2016-06-22T02:08:39.617Z,4
2016-06-22T02:09:39.625Z,0
2016-06-22T02:10:39.688Z,4
2016-06-22T02:11:40.306Z,4
2016-06-22T02:12:40.360Z,4
2016-06-22T02:13:40.323Z,4
2016-06-22T02:14:40.368Z,4
2016-06-22T02:15:39.199Z,8
2016-06-22T02:16:40.412Z,4
2016-06-22T02:17:40.442Z,8
2016-06-22T02:18:39.866Z,4
2016-06-22T02:19:40.046Z,8
2016-06-22T02:20:39.940Z,8
2016-06-22T02:21:40.568Z,8
2016-06-22T02:22:39.943Z,8
2016-06-22T02:23:39.344Z,8
2016-06-22T02:24:38.848Z,12
2016-06-22T02:25:39.404Z,8
2016-06-22T02:26:40.084Z,12
2016-06-22T02:27:40.087Z,12
2016-06-22T02:28:38.927Z,12
2016-06-22T02:29:40.724Z,12
2016-06-22T02:30:40.809Z,16
2016-06-22T02:31:40.805Z,16
2016-06-22T02:32:40.832Z,20
2016-06-22T02:33:40.245Z,20
2016-06-22T02:34:40.307Z,24
2016-06-22T02:35:40.258Z,24
2016-06-22T02:36:40.274Z,24
2016-06-22T02:37:40.307Z,28
2016-06-22T02:38:40.311Z,28
2016-06-22T02:39:39.735Z,32
2016-06-22T02:40:41.051Z,32
2016-06-22T02:41:39.779Z,36
2016-06-22T02:42:39.794Z,32
2016-06-22T02:43:40.480Z,28
2016-06-22T02:44:40.464Z,28
2016-06-22T02:45:40.541Z,28
2016-06-22T02:46:41.119Z,32
2016-06-22T02:47:39.910Z,28
2016-06-22T02:48:40.535Z,28
2016-06-22T02:49:40.552Z,32
2016-06-22T02:50:40.584Z,32
2016-06-22T02:51:40.004Z,44
2016-06-22T02:52:40.670Z,52
2016-06-22T02:53:41.272Z,64
2016-06-22T02:54:40.695Z,72
2016-06-22T02:55:40.111Z,84
2016-06-22T02:56:40.764Z,100
2016-06-22T02:57:40.137Z,120
2016-06-22T02:58:40.160Z,136
2016-06-22T02:59:40.238Z,152
2016-06-22T03:00:40.890Z,164
2016-06-22T03:01:40.843Z,184
2016-06-22T03:02:40.869Z,200
2016-06-22T03:03:40.384Z,216
2016-06-22T03:04:40.918Z,232
2016-06-22T03:05:40.313Z,248
2016-06-22T03:06:40.369Z,264
2016-06-22T03:07:41.650Z,284
2016-06-22T03:08:40.407Z,304
2016-06-22T03:09:41.077Z,324
2016-06-22T03:10:41.046Z,340
2016-06-22T03:11:40.462Z,356
2016-06-22T03:12:41.130Z,364
2016-06-22T03:13:41.766Z,380
2016-06-22T03:14:41.325Z,396
2016-06-22T03:15:39.932Z,416
2016-06-22T03:16:41.813Z,444
2016-06-22T03:17:39.981Z,472
2016-06-22T03:18:40.681Z,500
2016-06-22T03:19:41.869Z,524
2016-06-22T03:20:41.291Z,544
2016-06-22T03:21:41.924Z,564
2016-06-22T03:22:40.717Z,588
2016-06-22T03:23:40.800Z,616
2016-06-22T03:24:41.965Z,644
2016-06-22T03:25:41.407Z,672
2016-06-22T03:26:40.799Z,704
2016-06-22T03:27:40.837Z,728
2016-06-22T03:28:41.652Z,760
2016-06-22T03:29:41.125Z,788
2016-06-22T03:30:42.164Z,816
2016-06-22T03:31:40.504Z,840
2016-06-22T03:32:42.307Z,880
2016-06-22T03:33:41.125Z,904
2016-06-22T03:34:41.687Z,932
2016-06-22T03:35:41.746Z,952
2016-06-22T03:36:41.746Z,976
2016-06-22T03:37:41.758Z,1000
2016-06-22T03:38:41.865Z,1024
2016-06-22T03:39:41.096Z,1052
2016-06-22T03:40:41.858Z,1076
2016-06-22T03:41:41.788Z,1100
2016-06-22T03:42:41.877Z,1124
2016-06-22T03:43:42.419Z,1140
2016-06-22T03:44:41.215Z,1172
2016-06-22T03:45:42.483Z,1208
2016-06-22T03:46:41.261Z,1240
2016-06-22T03:47:42.527Z,1248
2016-06-22T03:48:41.959Z,1264
2016-06-22T03:49:41.348Z,1284
2016-06-22T03:50:41.946Z,1320
2016-06-22T03:51:42.630Z,1376
2016-06-22T03:52:41.399Z,1436
2016-06-22T03:53:42.757Z,1504
2016-06-22T03:54:42.080Z,1560
2016-06-22T03:55:42.698Z,1608
2016-06-22T03:56:42.095Z,1648
2016-06-22T03:57:41.522Z,1708
2016-06-22T03:58:41.523Z,1788
2016-06-22T03:59:42.778Z,1852
2016-06-22T04:00:41.606Z,1888
2016-06-22T04:01:41.640Z,1912
2016-06-22T04:02:42.942Z,1928
2016-06-22T04:03:42.282Z,1916
2016-06-22T04:04:42.506Z,1932
2016-06-22T04:05:42.969Z,1944
2016-06-22T04:06:43.075Z,1884
2016-06-22T04:07:42.957Z,1832
2016-06-22T04:08:42.382Z,1788
2016-06-22T04:09:43.008Z,1800
2016-06-22T04:10:41.831Z,1904
2016-06-22T04:11:41.837Z,2004
2016-06-22T04:12:42.506Z,2052
2016-06-22T04:13:43.107Z,2004
2016-06-22T04:14:42.519Z,2084
2016-06-22T04:15:41.348Z,2060
2016-06-22T04:16:42.001Z,1996
2016-06-22T04:17:43.199Z,2060
2016-06-22T04:18:43.270Z,2140
2016-06-22T04:19:42.633Z,2068
2016-06-22T04:20:42.707Z,1960
2016-06-22T04:21:42.068Z,2100
2016-06-22T04:22:42.709Z,2216
2016-06-22T04:23:42.141Z,2404
2016-06-22T04:24:43.357Z,2540
2016-06-22T04:25:42.182Z,2684
2016-06-22T04:26:42.827Z,2804
2016-06-22T04:27:42.805Z,3072
2016-06-22T04:28:42.900Z,3328
2016-06-22T04:29:42.876Z,3556
2016-06-22T04:30:42.901Z,3752
2016-06-22T04:31:43.523Z,3648
2016-06-22T04:32:42.940Z,3584
2016-06-22T04:33:43.557Z,3680
2016-06-22T04:34:43.011Z,3704
2016-06-22T04:35:43.031Z,3448
2016-06-22T04:36:43.635Z,3384
2016-06-22T04:37:43.193Z,3180
2016-06-22T04:38:42.471Z,3068
2016-06-22T04:39:41.906Z,2956
2016-06-22T04:40:42.544Z,2912
2016-06-22T04:41:42.580Z,3048
2016-06-22T04:42:43.170Z,3276
2016-06-22T04:43:43.867Z,3316
2016-06-22T04:44:43.830Z,3300
2016-06-22T04:45:43.274Z,3212
2016-06-22T04:46:42.679Z,3140
2016-06-22T04:47:43.314Z,2892
2016-06-22T04:48:43.353Z,2532
2016-06-22T04:49:43.347Z,2232
2016-06-22T04:50:42.151Z,2048
2016-06-22T04:51:42.802Z,1820
2016-06-22T04:52:42.194Z,1640
2016-06-22T04:53:42.899Z,1432
2016-06-22T04:54:42.856Z,1316
2016-06-22T04:55:42.918Z,1428
2016-06-22T04:56:43.544Z,1828
2016-06-22T04:57:42.993Z,2308
2016-06-22T04:58:43.591Z,2576
2016-06-22T04:59:42.393Z,2964
2016-06-22T05:00:44.613Z,3660
2016-06-22T05:01:43.016Z,4348
2016-06-22T05:02:43.105Z,5072
2016-06-22T05:03:43.675Z,6192
2016-06-22T05:04:43.217Z,7080
2016-06-22T05:05:43.133Z,7828
2016-06-22T05:06:44.543Z,8468
2016-06-22T05:07:43.797Z,9632
2016-06-22T05:08:43.261Z,10768
2016-06-22T05:09:44.748Z,11168
2016-06-22T05:10:43.276Z,10584
2016-06-22T05:11:43.280Z,9796
2016-06-22T05:12:43.338Z,9144
2016-06-22T05:13:42.791Z,8828
2016-06-22T05:14:44.559Z,8840
2016-06-22T05:15:42.863Z,8880
2016-06-22T05:16:43.379Z,8892
2016-06-22T05:17:42.808Z,9164
2016-06-22T05:18:44.108Z,9468
2016-06-22T05:19:43.484Z,9520
2016-06-22T05:20:44.727Z,9548
2016-06-22T05:21:44.207Z,8784
2016-06-22T05:22:44.161Z,8388
2016-06-22T05:23:44.177Z,8168
2016-06-22T05:24:44.207Z,7120
2016-06-22T05:25:43.606Z,6016
2016-06-22T05:26:44.852Z,5368
2016-06-22T05:27:43.688Z,4992
2016-06-22T05:28:44.303Z,4784
2016-06-22T05:29:44.327Z,4808
2016-06-22T05:30:45.070Z,4724
2016-06-22T05:31:44.373Z,4396
2016-06-22T05:32:43.808Z,3480
2016-06-22T05:33:45.095Z,3408
2016-06-22T05:34:45.227Z,2940
2016-06-22T05:35:45.081Z,2648
2016-06-22T05:36:43.880Z,2312
2016-06-22T05:37:43.306Z,2172
2016-06-22T05:38:43.946Z,2208
2016-06-22T05:39:44.683Z,2368
2016-06-22T05:40:44.756Z,2440
2016-06-22T05:41:45.260Z,2340
2016-06-22T05:42:44.078Z,2164
2016-06-22T05:43:43.466Z,1808
2016-06-22T05:44:44.710Z,1576
2016-06-22T05:45:43.610Z,1576
2016-06-22T05:46:44.739Z,1520
2016-06-22T05:47:44.180Z,1536
2016-06-22T05:48:44.798Z,1460
2016-06-22T05:49:45.509Z,1272
2016-06-22T05:50:44.938Z,1140
2016-06-22T05:51:44.255Z,1160
2016-06-22T05:52:45.525Z,1124
2016-06-22T05:53:44.308Z,1108
2016-06-22T05:54:44.963Z,1168
2016-06-22T05:55:44.999Z,1264
2016-06-22T05:56:45.092Z,1392
2016-06-22T05:57:44.435Z,1316
2016-06-22T05:58:45.668Z,1328
2016-06-22T05:59:45.664Z,1464
2016-06-22T06:00:45.136Z,1348
2016-06-22T06:01:45.137Z,1156
2016-06-22T06:02:44.534Z,1100
2016-06-22T06:03:45.166Z,1144
2016-06-22T06:04:45.201Z,984
2016-06-22T06:05:44.810Z,868
2016-06-22T06:06:45.230Z,708
2016-06-22T06:07:45.991Z,648
2016-06-22T06:08:45.287Z,612
2016-06-22T06:09:45.980Z,696
2016-06-22T06:10:45.349Z,852
2016-06-22T06:11:45.357Z,1076
2016-06-22T06:12:45.985Z,1348
2016-06-22T06:13:45.400Z,1660
2016-06-22T06:14:45.530Z,2332
2016-06-22T06:15:44.954Z,2864
2016-06-22T06:16:46.102Z,3228
2016-06-22T06:17:45.494Z,3268
2016-06-22T06:18:45.652Z,3960
2016-06-22T06:19:45.547Z,4736
2016-06-22T06:20:45.015Z,5724
2016-06-22T06:21:45.602Z,6404
2016-06-22T06:22:46.279Z,6924
2016-06-22T06:23:45.079Z,6780
2016-06-22T06:24:45.677Z,6776
2016-06-22T06:25:45.757Z,7584
2016-06-22T06:26:46.328Z,8956
2016-06-22T06:27:45.740Z,10072
2016-06-22T06:28:45.775Z,11300
2016-06-22T06:29:45.803Z,12532
2016-06-22T06:30:44.621Z,14012
2016-06-22T06:31:45.297Z,14964
2016-06-22T06:32:45.246Z,14396
2016-06-22T06:33:46.558Z,12896
2016-06-22T06:34:46.531Z,12592
2016-06-22T06:35:45.966Z,12792
2016-06-22T06:36:45.957Z,13072
2016-06-22T06:37:45.360Z,15516
2016-06-22T06:38:46.007Z,18272
2016-06-22T06:39:46.037Z,23840
2016-06-22T06:40:46.091Z,27552
2016-06-22T06:41:46.094Z,26272
2016-06-22T06:42:45.512Z,23584
2016-06-22T06:43:46.752Z,24160
2016-06-22T06:44:45.590Z,24544
2016-06-22T06:45:46.196Z,24896
2016-06-22T06:46:46.234Z,30176
2016-06-22T06:47:45.741Z,32160
2016-06-22T06:48:46.863Z,24992
2016-06-22T06:49:45.786Z,22016
2016-06-22T06:50:46.314Z,19040
2016-06-22T06:51:46.361Z,17792
2016-06-22T06:52:46.386Z,16800
2016-06-22T06:53:47.076Z,15296
2016-06-22T06:54:47.065Z,14188
2016-06-22T06:55:46.516Z,13804
2016-06-22T06:56:47.128Z,13512
2016-06-22T06:57:46.581Z,13176
2016-06-22T06:58:45.967Z,13608
2016-06-22T06:59:47.209Z,14520
2016-06-22T07:00:47.224Z,16064
2016-06-22T07:01:46.676Z,16448
2016-06-22T07:02:47.338Z,14592
2016-06-22T07:03:46.090Z,13812
2016-06-22T07:04:46.744Z,13488
2016-06-22T07:05:46.264Z,12420
2016-06-22T07:06:46.804Z,11008
2016-06-22T07:07:47.429Z,10184
2016-06-22T07:08:47.461Z,10296
2016-06-22T07:09:46.287Z,10496
2016-06-22T07:10:46.293Z,11160
2016-06-22T07:11:47.543Z,12536
2016-06-22T07:12:47.585Z,13296
2016-06-22T07:13:47.621Z,13376
2016-06-22T07:14:46.419Z,13688
2016-06-22T07:15:47.027Z,14680
2016-06-22T07:16:47.669Z,14832
2016-06-22T07:17:49.169Z,14132
2016-06-22T07:18:47.236Z,13632
2016-06-22T07:19:48.457Z,13080
2016-06-22T07:20:47.403Z,13188
2016-06-22T07:21:48.341Z,13848
2016-06-22T07:22:47.310Z,14064
2016-06-22T07:23:48.090Z,15076
2016-06-22T07:24:47.026Z,16096
2016-06-22T07:25:47.052Z,17376
2016-06-22T07:26:47.444Z,15616
2016-06-22T07:27:47.731Z,14596
2016-06-22T07:28:46.538Z,14736
2016-06-22T07:29:46.841Z,14812
2016-06-22T07:30:46.960Z,13684
2016-06-22T07:31:47.696Z,13384
2016-06-22T07:32:47.074Z,14332
2016-06-22T07:33:47.870Z,14456
2016-06-22T07:34:47.074Z,15712
2016-06-22T07:35:47.866Z,16288
2016-06-22T07:36:47.104Z,17632
2016-06-22T07:37:47.169Z,20576
2016-06-22T07:38:48.606Z,26400
2016-06-22T07:39:46.775Z,25664
2016-06-22T07:40:48.638Z,32256
2016-06-22T07:41:48.707Z,25888
2016-06-22T07:42:47.817Z,26944
2016-06-22T07:43:48.461Z,30816
2016-06-22T07:44:47.929Z,46240
2016-06-22T07:45:47.894Z,29408
2016-06-22T07:46:46.705Z,34144
2016-06-22T07:47:46.781Z,25952
2016-06-22T07:48:47.978Z,62624
2016-06-22T07:49:48.087Z,70720
2016-06-22T07:50:47.631Z,21824
2016-06-22T07:51:47.579Z,23104
2016-06-22T07:52:48.965Z,57088
2016-06-22T07:53:48.784Z,45600
2016-06-22T07:54:48.183Z,65760
2016-06-22T07:55:47.659Z,65376
2016-06-22T07:56:47.728Z,64448
2016-06-22T07:57:47.661Z,72128
2016-06-22T07:58:47.709Z,79168
2016-06-22T07:59:47.704Z,63904
2016-06-22T08:00:48.975Z,21824
2016-06-22T08:01:47.783Z,37664
2016-06-22T08:02:48.450Z,30880
2016-06-22T08:03:48.462Z,37664
2016-06-22T08:04:48.498Z,29088
2016-06-22T08:05:47.957Z,20672
2016-06-22T08:06:49.224Z,24256
2016-06-22T08:07:48.124Z,24448
2016-06-22T08:08:48.035Z,21472
2016-06-22T08:09:48.688Z,20736
2016-06-22T08:10:49.330Z,21216
2016-06-22T08:11:48.845Z,19904
2016-06-22T08:12:48.419Z,14948
2016-06-22T08:13:47.761Z,14056
2016-06-22T08:14:49.459Z,14628
2016-06-22T08:15:48.919Z,16192
2016-06-22T08:16:48.905Z,18336
2016-06-22T08:17:48.953Z,26912
2016-06-22T08:18:49.643Z,29024
2016-06-22T08:19:49.645Z,21504
2016-06-22T08:20:49.063Z,21984
2016-06-22T08:21:48.500Z,22880
2016-06-22T08:22:49.181Z,23264
2016-06-22T08:23:49.180Z,22528
2016-06-22T08:24:49.203Z,21600
2016-06-22T08:25:49.850Z,24096
2016-06-22T08:26:49.300Z,25824
2016-06-22T08:27:49.890Z,28320
2016-06-22T08:28:49.921Z,23264
2016-06-22T08:29:48.145Z,22496
2016-06-22T08:30:48.797Z,21344
2016-06-22T08:31:48.830Z,24128
2016-06-22T08:32:50.054Z,22272
2016-06-22T08:33:48.872Z,17760
2016-06-22T08:34:48.979Z,16576
2016-06-22T08:35:50.151Z,14140
2016-06-22T08:36:48.985Z,12280
2016-06-22T08:37:49.618Z,10128
2016-06-22T08:38:49.675Z,9956
2016-06-22T08:39:49.136Z,11900
2016-06-22T08:40:50.368Z,15616
2016-06-22T08:41:50.327Z,23424
2016-06-22T08:42:48.563Z,26656
2016-06-22T08:43:49.801Z,26464
2016-06-22T08:44:50.459Z,25152
2016-06-22T08:45:50.487Z,20448
2016-06-22T08:46:49.887Z,16544
2016-06-22T08:47:50.057Z,14492
2016-06-22T08:48:49.357Z,14600
2016-06-22T08:49:50.045Z,14728
2016-06-22T08:50:49.425Z,13952
2016-06-22T08:51:50.036Z,13708
2016-06-22T08:52:50.687Z,12724
2016-06-22T08:53:50.716Z,12420
2016-06-22T08:54:50.746Z,11876
2016-06-22T08:55:50.188Z,13300
2016-06-22T08:56:50.823Z,17824
2016-06-22T08:57:50.237Z,20960
2016-06-22T08:58:50.264Z,19776
2016-06-22T08:59:50.313Z,19712
2016-06-22T09:00:50.436Z,19488
2016-06-22T09:01:49.757Z,20640
2016-06-22T09:02:49.778Z,19488
2016-06-22T09:03:51.021Z,20960
2016-06-22T09:04:50.478Z,19936
2016-06-22T09:05:50.635Z,17056
2016-06-22T09:06:50.510Z,13244
2016-06-22T09:07:51.190Z,11132
2016-06-22T09:08:50.587Z,9560
2016-06-22T09:09:50.023Z,8128
2016-06-22T09:10:50.027Z,7864
2016-06-22T09:11:51.268Z,8300
2016-06-22T09:12:51.290Z,8944
2016-06-22T09:13:51.379Z,11156
2016-06-22T09:14:50.947Z,13484
2016-06-22T09:15:50.176Z,14836
2016-06-22T09:16:49.598Z,16896
2016-06-22T09:17:50.234Z,16640
2016-06-22T09:18:52.020Z,17280
2016-06-22T09:19:50.292Z,16672
2016-06-22T09:20:51.023Z,15504
2016-06-22T09:21:51.607Z,15124
2016-06-22T09:22:51.625Z,14036
2016-06-22T09:23:50.993Z,13880
2016-06-22T09:24:51.633Z,13996
2016-06-22T09:25:50.491Z,15032
2016-06-22T09:26:51.097Z,20192
2016-06-22T09:27:51.159Z,23456
2016-06-22T09:28:51.163Z,25408
2016-06-22T09:29:49.970Z,22240
2016-06-22T09:30:51.210Z,20640
2016-06-22T09:31:51.291Z,22528
2016-06-22T09:32:50.679Z,21504
2016-06-22T09:33:51.012Z,20768
2016-06-22T09:34:51.938Z,16928
2016-06-22T09:35:50.752Z,12560
2016-06-22T09:36:51.382Z,11016
2016-06-22T09:37:50.843Z,13372
2016-06-22T09:38:51.578Z,16576
2016-06-22T09:39:51.134Z,20512
2016-06-22T09:40:51.552Z,23328
2016-06-22T09:41:52.152Z,23360
2016-06-22T09:42:52.227Z,23744
2016-06-22T09:43:52.235Z,24768
2016-06-22T09:44:51.091Z,25344
2016-06-22T09:45:52.280Z,25024
2016-06-22T09:46:52.319Z,24416
2016-06-22T09:47:51.130Z,23616
2016-06-22T09:48:52.385Z,21536
2016-06-22T09:49:51.902Z,19072
2016-06-22T09:50:51.869Z,16544
2016-06-22T09:51:51.258Z,14608
2016-06-22T09:52:51.919Z,13548
2016-06-22T09:53:52.624Z,12568
2016-06-22T09:54:51.336Z,12752
2016-06-22T09:55:51.978Z,14432
2016-06-22T09:56:51.494Z,16256
2016-06-22T09:57:52.047Z,18080
2016-06-22T09:58:52.191Z,20032
2016-06-22T09:59:51.483Z,21920
2016-06-22T10:00:52.780Z,23264
2016-06-22T10:01:51.575Z,23648
2016-06-22T10:02:52.236Z,23776
2016-06-22T10:03:51.088Z,23808
2016-06-22T10:04:52.267Z,24576
2016-06-22T10:05:52.313Z,24640
2016-06-22T10:06:52.999Z,24512
2016-06-22T10:07:51.776Z,24256
2016-06-22T10:08:52.990Z,23072
2016-06-22T10:09:52.478Z,22944
2016-06-22T10:10:52.444Z,22496
2016-06-22T10:11:53.094Z,20832
2016-06-22T10:12:52.504Z,19776
2016-06-22T10:14:51.394Z,19072
2016-06-22T10:15:52.608Z,20800
2016-06-22T10:16:52.621Z,21920
2016-06-22T10:17:52.661Z,24064
2016-06-22T10:18:52.715Z,25888
2016-06-22T10:19:52.757Z,26432
2016-06-22T10:20:52.784Z,27776
2016-06-22T10:21:52.789Z,25152
2016-06-22T10:22:52.175Z,24768
2016-06-22T10:23:52.258Z,25504
2016-06-22T10:24:52.279Z,24160
2016-06-22T10:25:53.507Z,22144
2016-06-22T10:26:52.932Z,21024
2016-06-22T10:27:53.083Z,19328
2016-06-22T10:28:52.994Z,17984
2016-06-22T10:29:53.058Z,16544
2016-06-22T10:30:52.479Z,16768
2016-06-22T10:31:53.168Z,17152
2016-06-22T10:32:51.923Z,20000
2016-06-22T10:33:53.168Z,23552
2016-06-22T10:34:53.816Z,24512
2016-06-22T10:35:52.618Z,23904
2016-06-22T10:36:53.259Z,22816
2016-06-22T10:37:52.677Z,20736
2016-06-22T10:38:52.721Z,19680
2016-06-22T10:39:53.354Z,19360
2016-06-22T10:40:53.382Z,20352
2016-06-22T10:41:52.806Z,20480
2016-06-22T10:42:53.476Z,18976
2016-06-22T10:43:53.568Z,18912
2016-06-22T10:44:53.578Z,19424
2016-06-22T10:45:53.058Z,20032
2016-06-22T10:46:53.570Z,21056
2016-06-22T10:47:54.312Z,20544
2016-06-22T10:48:53.036Z,16608
2016-06-22T10:49:53.692Z,13900
2016-06-22T10:50:54.293Z,12552
2016-06-22T10:51:53.121Z,12148
2016-06-22T10:52:54.395Z,13208
2016-06-22T10:53:53.197Z,16160
2016-06-22T10:54:53.239Z,18176
2016-06-22T10:55:53.853Z,17696
2016-06-22T10:56:53.906Z,16992
2016-06-22T10:57:53.942Z,16352
2016-06-22T10:58:54.652Z,14232
2016-06-22T10:59:54.114Z,13280
2016-06-22T11:00:53.420Z,12908
2016-06-22T11:01:53.536Z,13120
2016-06-22T11:02:53.636Z,14128
2016-06-22T11:03:53.479Z,15152
2016-06-22T11:04:54.815Z,15404
2016-06-22T11:05:54.185Z,15180
2016-06-22T11:06:54.429Z,14932
2016-06-22T11:07:54.844Z,15072
2016-06-22T11:08:53.807Z,14456
2016-06-22T11:09:54.551Z,13632
2016-06-22T11:10:54.524Z,13444
2016-06-22T11:11:53.855Z,13716
2016-06-22T11:12:55.138Z,13560
2016-06-22T11:13:54.465Z,13480
2016-06-22T11:14:55.056Z,13904
2016-06-22T11:15:55.138Z,14828
2016-06-22T11:16:54.614Z,16096
2016-06-22T11:17:55.156Z,15600
2016-06-22T11:18:55.373Z,15120
2016-06-22T11:19:55.234Z,16640
2016-06-22T11:20:55.222Z,15840
2016-06-22T11:21:55.753Z,14204
2016-06-22T11:22:54.779Z,13980
2016-06-22T11:23:54.110Z,15000
2016-06-22T11:24:55.374Z,15688
2016-06-22T11:25:55.076Z,17376
2016-06-22T11:26:54.814Z,18048
2016-06-22T11:27:55.604Z,18176
2016-06-22T11:28:54.273Z,17152
2016-06-22T11:29:54.955Z,17120
2016-06-22T11:30:54.355Z,18944
2016-06-22T11:31:54.971Z,19360
2016-06-22T11:32:54.404Z,19232
2016-06-22T11:33:55.029Z,19744
2016-06-22T11:34:55.685Z,17280
2016-06-22T11:35:55.097Z,15808
2016-06-22T11:36:55.183Z,14172
2016-06-22T11:37:55.159Z,13748
2016-06-22T11:38:53.971Z,14876
2016-06-22T11:39:55.214Z,17280
2016-06-22T11:40:55.273Z,18048
2016-06-22T11:41:55.915Z,17952
2016-06-22T11:42:55.915Z,17664
2016-06-22T11:43:55.447Z,18624
2016-06-22T11:44:56.007Z,17344
2016-06-22T11:45:54.805Z,16384
2016-06-22T11:46:55.435Z,15680
2016-06-22T11:47:56.152Z,15648
2016-06-22T11:48:55.490Z,14728
2016-06-22T11:49:55.845Z,13436
2016-06-22T11:50:54.969Z,12584
2016-06-22T11:51:55.613Z,12304
2016-06-22T11:52:55.674Z,12496
2016-06-22T11:53:55.046Z,11880
2016-06-22T11:54:55.683Z,12572
2016-06-22T11:55:55.115Z,13136
2016-06-22T11:56:55.161Z,13640
2016-06-22T11:57:55.236Z,13932
2016-06-22T11:58:55.827Z,15840
2016-06-22T11:59:55.940Z,17152
2016-06-22T12:00:55.318Z,18368
2016-06-22T12:01:55.411Z,20768
2016-06-22T12:02:56.550Z,21024
2016-06-22T12:03:56.576Z,19360
2016-06-22T12:04:56.021Z,17408
2016-06-22T12:05:56.086Z,16320
2016-06-22T12:06:56.671Z,14480
2016-06-22T12:07:56.102Z,14416
2016-06-22T12:08:55.534Z,15648
2016-06-22T12:09:56.780Z,15552
2016-06-22T12:10:56.231Z,15488
2016-06-22T12:11:56.247Z,14524
2016-06-22T12:12:56.359Z,14272
2016-06-22T12:13:56.287Z,13772
2016-06-22T12:14:56.530Z,14784
2016-06-22T12:15:55.809Z,15144
2016-06-22T12:16:55.830Z,14712
2016-06-22T12:17:56.431Z,14996
2016-06-22T12:18:55.878Z,15012
2016-06-22T12:19:56.498Z,16800
2016-06-22T12:20:57.189Z,15080
2016-06-22T12:21:57.144Z,15232
2016-06-22T12:22:56.594Z,16608
2016-06-22T12:23:56.607Z,16736
2016-06-22T12:24:56.627Z,16768
2016-06-22T12:25:57.275Z,16032
2016-06-22T12:26:56.710Z,15200
2016-06-22T12:27:57.344Z,15968
2016-06-22T12:28:56.769Z,16992
2016-06-22T12:29:56.809Z,15968
2016-06-22T12:30:57.436Z,15840
2016-06-22T12:31:55.656Z,16896
2016-06-22T12:32:57.559Z,18016
2016-06-22T12:33:56.923Z,18336
2016-06-22T12:34:57.007Z,18368
2016-06-22T12:35:56.970Z,17088
2016-06-22T12:36:56.411Z,15180
2016-06-22T12:37:57.639Z,13272
2016-06-22T12:38:57.271Z,12332
2016-06-22T12:39:57.198Z,11728
2016-06-22T12:40:57.753Z,11364
2016-06-22T12:41:57.229Z,11660
2016-06-22T12:42:57.271Z,11652
2016-06-22T12:43:57.334Z,11812
2016-06-22T12:44:57.261Z,12324
2016-06-22T12:45:57.944Z,13476
2016-06-22T12:46:57.319Z,14316
2016-06-22T12:47:57.446Z,14532
2016-06-22T12:48:56.787Z,16128
2016-06-22T12:49:57.464Z,17280
2016-06-22T12:50:58.079Z,16416
2016-06-22T12:51:58.094Z,15744
2016-06-22T12:52:57.560Z,15328
2016-06-22T12:53:57.545Z,14684
2016-06-22T12:54:57.019Z,14132
2016-06-22T12:55:57.626Z,13636
2016-06-22T12:56:57.691Z,13168
2016-06-22T12:57:57.687Z,12028
2016-06-22T12:58:58.334Z,11128
2016-06-22T12:59:57.331Z,10740
2016-06-22T13:00:58.379Z,11040
2016-06-22T13:01:57.883Z,12444
2016-06-22T13:02:57.865Z,14224
2016-06-22T13:03:58.460Z,14924
2016-06-22T13:04:58.482Z,14296
2016-06-22T13:05:57.914Z,13060
2016-06-22T13:06:58.545Z,11440
2016-06-22T13:07:58.586Z,10712
2016-06-22T13:08:58.025Z,10448
2016-06-22T13:09:56.843Z,10240
2016-06-22T13:10:57.561Z,10648
2016-06-22T13:11:57.491Z,11092
2016-06-22T13:12:58.754Z,10440
2016-06-22T13:13:58.795Z,10456
2016-06-22T13:14:58.861Z,12028
2016-06-22T13:15:58.320Z,13752
2016-06-22T13:16:58.917Z,14748
2016-06-22T13:17:58.316Z,14648
2016-06-22T13:18:58.926Z,14588
2016-06-22T13:19:58.361Z,14768
2016-06-22T13:20:58.364Z,13864
2016-06-22T13:21:58.027Z,13284
2016-06-22T13:22:58.446Z,13104
2016-06-22T13:23:57.879Z,13640